sensor_id;sensor_type;location;lat;lon;timestamp;P1;durP1;ratioP1;P2;durP2;ratioP2
43114;SDS011;28727;50.068;14.452;2023-03-01T00:01:29;43.50;;;23.58;;
43114;SDS011;28727;50.068;14.452;2023-03-01T00:04:01;46.90;;;22.33;;
43114;SDS011;28727;50.068;14.452;2023-03-01T00:06:35;43.90;;;22.85;;
43114;SDS011;28727;50.068;14.452;2023-03-01T00:09:12;49.28;;;24.08;;
43114;SDS011;28727;50.068;14.452;2023-03-01T00:11:45;48.10;;;24.27;;
43114;SDS011;28727;50.068;14.452;2023-03-01T00:14:17;41.03;;;21.65;;
43114;SDS011;28727;50.068;14.452;2023-03-01T00:16:49;43.55;;;23.17;;
43114;SDS011;28727;50.068;14.452;2023-03-01T00:19:21;40.25;;;22.63;;
43114;SDS011;28727;50.068;14.452;2023-03-01T00:21:53;47.70;;;23.85;;
43114;SDS011;28727;50.068;14.452;2023-03-01T00:24:27;44.83;;;23.23;;
43114;SDS011;28727;50.068;14.452;2023-03-01T00:26:59;47.92;;;24.35;;
43114;SDS011;28727;50.068;14.452;2023-03-01T00:29:34;44.10;;;24.23;;
43114;SDS011;28727;50.068;14.452;2023-03-01T00:32:06;49.80;;;23.73;;
43114;SDS011;28727;50.068;14.452;2023-03-01T00:34:40;45.35;;;23.30;;
43114;SDS011;28727;50.068;14.452;2023-03-01T00:37:25;47.45;;;25.25;;
43114;SDS011;28727;50.068;14.452;2023-03-01T00:39:57;52.03;;;26.15;;
43114;SDS011;28727;50.068;14.452;2023-03-01T00:42:28;50.45;;;27.08;;
43114;SDS011;28727;50.068;14.452;2023-03-01T00:45:03;56.42;;;27.23;;
43114;SDS011;28727;50.068;14.452;2023-03-01T00:47:39;53.83;;;26.67;;
43114;SDS011;28727;50.068;14.452;2023-03-01T00:50:11;55.08;;;26.73;;
43114;SDS011;28727;50.068;14.452;2023-03-01T00:52:45;55.50;;;28.35;;
43114;SDS011;28727;50.068;14.452;2023-03-01T00:55:45;56.33;;;27.10;;
43114;SDS011;28727;50.068;14.452;2023-03-01T01:00:49;52.20;;;26.35;;
43114;SDS011;28727;50.068;14.452;2023-03-01T01:03:21;56.08;;;27.98;;
43114;SDS011;28727;50.068;14.452;2023-03-01T01:05:56;58.35;;;28.88;;
43114;SDS011;28727;50.068;14.452;2023-03-01T01:08:27;58.28;;;28.65;;
43114;SDS011;28727;50.068;14.452;2023-03-01T01:10:59;56.63;;;26.77;;
43114;SDS011;28727;50.068;14.452;2023-03-01T01:13:31;55.20;;;26.85;;
43114;SDS011;28727;50.068;14.452;2023-03-01T01:16:11;58.45;;;26.50;;
43114;SDS011;28727;50.068;14.452;2023-03-01T01:18:50;56.40;;;27.38;;
43114;SDS011;28727;50.068;14.452;2023-03-01T01:21:24;53.72;;;26.40;;
43114;SDS011;28727;50.068;14.452;2023-03-01T01:23:59;52.47;;;26.73;;
43114;SDS011;28727;50.068;14.452;2023-03-01T01:26:32;52.25;;;26.40;;
43114;SDS011;28727;50.068;14.452;2023-03-01T01:29:09;55.20;;;26.45;;
43114;SDS011;28727;50.068;14.452;2023-03-01T01:31:42;56.13;;;25.73;;
43114;SDS011;28727;50.068;14.452;2023-03-01T01:34:16;55.13;;;27.45;;
43114;SDS011;28727;50.068;14.452;2023-03-01T01:36:59;49.58;;;25.42;;
43114;SDS011;28727;50.068;14.452;2023-03-01T01:39:34;51.70;;;26.05;;
43114;SDS011;28727;50.068;14.452;2023-03-01T01:42:09;54.97;;;26.98;;
43114;SDS011;28727;50.068;14.452;2023-03-01T01:48:03;55.45;;;25.95;;
43114;SDS011;28727;50.068;14.452;2023-03-01T01:50:40;51.78;;;25.35;;
43114;SDS011;28727;50.068;14.452;2023-03-01T01:53:14;47.03;;;24.63;;
43114;SDS011;28727;50.068;14.452;2023-03-01T01:55:51;44.90;;;22.23;;
43114;SDS011;28727;50.068;14.452;2023-03-01T01:58:29;42.85;;;22.00;;
43114;SDS011;28727;50.068;14.452;2023-03-01T02:01:03;41.92;;;19.80;;
43114;SDS011;28727;50.068;14.452;2023-03-01T02:03:37;44.17;;;22.20;;
43114;SDS011;28727;50.068;14.452;2023-03-01T02:06:48;39.42;;;19.60;;
43114;SDS011;28727;50.068;14.452;2023-03-01T02:09:15;41.53;;;19.75;;
43114;SDS011;28727;50.068;14.452;2023-03-01T02:11:50;40.38;;;19.60;;
43114;SDS011;28727;50.068;14.452;2023-03-01T02:14:23;38.63;;;19.63;;
43114;SDS011;28727;50.068;14.452;2023-03-01T02:16:54;42.63;;;20.50;;
43114;SDS011;28727;50.068;14.452;2023-03-01T02:22:28;35.35;;;19.23;;
43114;SDS011;28727;50.068;14.452;2023-03-01T02:30:42;40.35;;;21.65;;
43114;SDS011;28727;50.068;14.452;2023-03-01T02:33:38;43.05;;;21.00;;
43114;SDS011;28727;50.068;14.452;2023-03-01T02:36:14;40.53;;;21.40;;
43114;SDS011;28727;50.068;14.452;2023-03-01T02:38:51;41.70;;;20.60;;
43114;SDS011;28727;50.068;14.452;2023-03-01T02:41:31;42.17;;;21.85;;
43114;SDS011;28727;50.068;14.452;2023-03-01T02:44:06;44.67;;;21.15;;
43114;SDS011;28727;50.068;14.452;2023-03-01T02:46:48;46.47;;;21.35;;
43114;SDS011;28727;50.068;14.452;2023-03-01T02:49:31;39.65;;;19.98;;
43114;SDS011;28727;50.068;14.452;2023-03-01T02:55:12;44.15;;;21.77;;
43114;SDS011;28727;50.068;14.452;2023-03-01T02:57:47;42.97;;;20.65;;
43114;SDS011;28727;50.068;14.452;2023-03-01T03:00:26;45.33;;;20.60;;
43114;SDS011;28727;50.068;14.452;2023-03-01T03:03:07;40.58;;;20.50;;
43114;SDS011;28727;50.068;14.452;2023-03-01T03:05:39;43.45;;;21.20;;
43114;SDS011;28727;50.068;14.452;2023-03-01T03:08:11;41.83;;;21.02;;
43114;SDS011;28727;50.068;14.452;2023-03-01T03:10:45;46.00;;;22.05;;
43114;SDS011;28727;50.068;14.452;2023-03-01T03:13:17;41.55;;;20.90;;
43114;SDS011;28727;50.068;14.452;2023-03-01T03:15:50;45.08;;;22.10;;
43114;SDS011;28727;50.068;14.452;2023-03-01T03:18:26;41.78;;;20.92;;
43114;SDS011;28727;50.068;14.452;2023-03-01T03:20:58;39.80;;;21.33;;
43114;SDS011;28727;50.068;14.452;2023-03-01T03:23:30;46.38;;;21.23;;
43114;SDS011;28727;50.068;14.452;2023-03-01T03:26:05;44.63;;;21.80;;
43114;SDS011;28727;50.068;14.452;2023-03-01T03:31:11;45.28;;;22.30;;
43114;SDS011;28727;50.068;14.452;2023-03-01T03:33:45;42.92;;;20.23;;
43114;SDS011;28727;50.068;14.452;2023-03-01T03:36:18;45.08;;;21.88;;
43114;SDS011;28727;50.068;14.452;2023-03-01T03:38:53;40.35;;;21.33;;
43114;SDS011;28727;50.068;14.452;2023-03-01T03:41:25;42.55;;;20.98;;
43114;SDS011;28727;50.068;14.452;2023-03-01T03:43:56;44.67;;;20.70;;
43114;SDS011;28727;50.068;14.452;2023-03-01T03:46:28;44.08;;;22.50;;
43114;SDS011;28727;50.068;14.452;2023-03-01T03:49:00;47.08;;;22.88;;
43114;SDS011;28727;50.068;14.452;2023-03-01T03:51:34;43.55;;;21.05;;
43114;SDS011;28727;50.068;14.452;2023-03-01T03:54:06;44.75;;;21.58;;
43114;SDS011;28727;50.068;14.452;2023-03-01T03:56:38;49.47;;;23.33;;
43114;SDS011;28727;50.068;14.452;2023-03-01T04:01:44;39.70;;;19.80;;
43114;SDS011;28727;50.068;14.452;2023-03-01T04:04:16;43.40;;;21.00;;
43114;SDS011;28727;50.068;14.452;2023-03-01T04:06:50;44.55;;;21.40;;
43114;SDS011;28727;50.068;14.452;2023-03-01T04:09:21;46.85;;;19.95;;
43114;SDS011;28727;50.068;14.452;2023-03-01T04:11:54;44.28;;;21.55;;
43114;SDS011;28727;50.068;14.452;2023-03-01T04:14:26;41.95;;;21.52;;
43114;SDS011;28727;50.068;14.452;2023-03-01T04:16:58;43.05;;;20.67;;
43114;SDS011;28727;50.068;14.452;2023-03-01T04:19:30;42.88;;;21.23;;
43114;SDS011;28727;50.068;14.452;2023-03-01T04:22:09;41.30;;;19.85;;
43114;SDS011;28727;50.068;14.452;2023-03-01T04:24:42;46.47;;;22.52;;
43114;SDS011;28727;50.068;14.452;2023-03-01T04:27:16;45.70;;;22.63;;
43114;SDS011;28727;50.068;14.452;2023-03-01T04:29:51;45.33;;;21.90;;
43114;SDS011;28727;50.068;14.452;2023-03-01T04:32:22;48.33;;;22.70;;
43114;SDS011;28727;50.068;14.452;2023-03-01T04:34:54;43.22;;;22.95;;
43114;SDS011;28727;50.068;14.452;2023-03-01T04:37:26;47.15;;;23.98;;
43114;SDS011;28727;50.068;14.452;2023-03-01T04:39:58;50.20;;;24.40;;
43114;SDS011;28727;50.068;14.452;2023-03-01T04:42:30;50.50;;;24.48;;
43114;SDS011;28727;50.068;14.452;2023-03-01T04:45:02;50.13;;;25.15;;
43114;SDS011;28727;50.068;14.452;2023-03-01T04:47:37;54.80;;;24.65;;
43114;SDS011;28727;50.068;14.452;2023-03-01T04:50:10;54.10;;;24.55;;
43114;SDS011;28727;50.068;14.452;2023-03-01T04:52:43;50.60;;;23.23;;
43114;SDS011;28727;50.068;14.452;2023-03-01T04:55:15;53.58;;;25.00;;
43114;SDS011;28727;50.068;14.452;2023-03-01T04:57:52;48.63;;;24.90;;
43114;SDS011;28727;50.068;14.452;2023-03-01T05:00:27;49.78;;;23.55;;
43114;SDS011;28727;50.068;14.452;2023-03-01T05:02:59;50.53;;;24.02;;
43114;SDS011;28727;50.068;14.452;2023-03-01T05:05:33;45.58;;;22.90;;
43114;SDS011;28727;50.068;14.452;2023-03-01T05:08:07;49.65;;;24.13;;
43114;SDS011;28727;50.068;14.452;2023-03-01T05:10:39;48.03;;;23.00;;
43114;SDS011;28727;50.068;14.452;2023-03-01T05:13:15;52.20;;;24.05;;
43114;SDS011;28727;50.068;14.452;2023-03-01T05:15:58;51.97;;;24.77;;
43114;SDS011;28727;50.068;14.452;2023-03-01T05:18:32;51.58;;;24.88;;
43114;SDS011;28727;50.068;14.452;2023-03-01T05:21:10;50.30;;;24.33;;
43114;SDS011;28727;50.068;14.452;2023-03-01T05:23:47;52.53;;;25.17;;
43114;SDS011;28727;50.068;14.452;2023-03-01T05:26:19;52.30;;;25.73;;
43114;SDS011;28727;50.068;14.452;2023-03-01T05:28:58;53.88;;;25.80;;
43114;SDS011;28727;50.068;14.452;2023-03-01T05:31:32;51.50;;;24.80;;
43114;SDS011;28727;50.068;14.452;2023-03-01T05:34:05;54.15;;;26.05;;
43114;SDS011;28727;50.068;14.452;2023-03-01T05:36:37;54.53;;;25.73;;
43114;SDS011;28727;50.068;14.452;2023-03-01T05:39:13;50.55;;;25.33;;
43114;SDS011;28727;50.068;14.452;2023-03-01T05:41:45;57.88;;;26.48;;
43114;SDS011;28727;50.068;14.452;2023-03-01T05:44:25;53.60;;;25.58;;
43114;SDS011;28727;50.068;14.452;2023-03-01T05:47:12;51.15;;;25.25;;
43114;SDS011;28727;50.068;14.452;2023-03-01T05:49:47;47.13;;;23.88;;
43114;SDS011;28727;50.068;14.452;2023-03-01T05:52:19;51.70;;;24.15;;
43114;SDS011;28727;50.068;14.452;2023-03-01T05:54:55;53.60;;;25.48;;
43114;SDS011;28727;50.068;14.452;2023-03-01T05:57:28;51.47;;;25.13;;
43114;SDS011;28727;50.068;14.452;2023-03-01T06:00:03;59.70;;;28.00;;
43114;SDS011;28727;50.068;14.452;2023-03-01T06:02:42;66.93;;;28.90;;
43114;SDS011;28727;50.068;14.452;2023-03-01T06:05:14;60.78;;;29.00;;
43114;SDS011;28727;50.068;14.452;2023-03-01T06:07:48;67.97;;;29.45;;
43114;SDS011;28727;50.068;14.452;2023-03-01T06:10:21;62.83;;;29.75;;
43114;SDS011;28727;50.068;14.452;2023-03-01T06:12:54;62.42;;;31.30;;
43114;SDS011;28727;50.068;14.452;2023-03-01T06:15:26;81.82;;;42.47;;
43114;SDS011;28727;50.068;14.452;2023-03-01T06:18:03;66.07;;;34.10;;
43114;SDS011;28727;50.068;14.452;2023-03-01T06:20:35;61.22;;;32.10;;
43114;SDS011;28727;50.068;14.452;2023-03-01T06:23:07;60.95;;;28.98;;
43114;SDS011;28727;50.068;14.452;2023-03-01T06:25:42;54.63;;;28.43;;
43114;SDS011;28727;50.068;14.452;2023-03-01T06:28:13;58.88;;;29.23;;
43114;SDS011;28727;50.068;14.452;2023-03-01T06:30:45;57.08;;;28.45;;
43114;SDS011;28727;50.068;14.452;2023-03-01T06:35:56;54.05;;;25.58;;
43114;SDS011;28727;50.068;14.452;2023-03-01T06:40:59;46.83;;;25.25;;
43114;SDS011;28727;50.068;14.452;2023-03-01T06:43:35;44.08;;;25.10;;
43114;SDS011;28727;50.068;14.452;2023-03-01T06:46:07;49.28;;;26.25;;
43114;SDS011;28727;50.068;14.452;2023-03-01T06:48:39;45.55;;;25.48;;
43114;SDS011;28727;50.068;14.452;2023-03-01T06:51:10;42.15;;;25.55;;
43114;SDS011;28727;50.068;14.452;2023-03-01T06:53:42;42.72;;;25.75;;
43114;SDS011;28727;50.068;14.452;2023-03-01T06:56:14;42.75;;;25.50;;
43114;SDS011;28727;50.068;14.452;2023-03-01T06:58:46;43.78;;;26.30;;
43114;SDS011;28727;50.068;14.452;2023-03-01T07:01:24;43.97;;;25.45;;
43114;SDS011;28727;50.068;14.452;2023-03-01T07:03:56;33.50;;;22.67;;
43114;SDS011;28727;50.068;14.452;2023-03-01T07:06:28;40.25;;;24.67;;
43114;SDS011;28727;50.068;14.452;2023-03-01T07:09:03;36.50;;;23.45;;
43114;SDS011;28727;50.068;14.452;2023-03-01T07:11:35;31.77;;;22.27;;
43114;SDS011;28727;50.068;14.452;2023-03-01T07:14:07;40.60;;;24.67;;
43114;SDS011;28727;50.068;14.452;2023-03-01T07:16:39;36.92;;;21.42;;
43114;SDS011;28727;50.068;14.452;2023-03-01T07:19:11;33.45;;;20.05;;
43114;SDS011;28727;50.068;14.452;2023-03-01T07:21:43;39.42;;;21.90;;
43114;SDS011;28727;50.068;14.452;2023-03-01T07:24:15;38.10;;;21.02;;
43114;SDS011;28727;50.068;14.452;2023-03-01T07:26:53;37.13;;;21.70;;
43114;SDS011;28727;50.068;14.452;2023-03-01T07:29:25;32.35;;;21.20;;
43114;SDS011;28727;50.068;14.452;2023-03-01T07:32:00;38.65;;;21.85;;
43114;SDS011;28727;50.068;14.452;2023-03-01T07:34:32;34.47;;;20.70;;
43114;SDS011;28727;50.068;14.452;2023-03-01T07:37:05;33.22;;;21.48;;
43114;SDS011;28727;50.068;14.452;2023-03-01T07:39:37;31.92;;;20.98;;
43114;SDS011;28727;50.068;14.452;2023-03-01T07:42:08;31.35;;;18.90;;
43114;SDS011;28727;50.068;14.452;2023-03-01T07:44:40;36.17;;;20.58;;
43114;SDS011;28727;50.068;14.452;2023-03-01T07:47:12;34.13;;;20.45;;
43114;SDS011;28727;50.068;14.452;2023-03-01T07:49:44;32.20;;;20.33;;
43114;SDS011;28727;50.068;14.452;2023-03-01T07:52:16;34.80;;;20.65;;
43114;SDS011;28727;50.068;14.452;2023-03-01T07:54:47;33.30;;;21.40;;
43114;SDS011;28727;50.068;14.452;2023-03-01T07:57:19;31.20;;;19.48;;
43114;SDS011;28727;50.068;14.452;2023-03-01T07:59:51;31.02;;;19.83;;
43114;SDS011;28727;50.068;14.452;2023-03-01T08:02:23;31.92;;;20.65;;
43114;SDS011;28727;50.068;14.452;2023-03-01T08:04:55;33.35;;;20.25;;
43114;SDS011;28727;50.068;14.452;2023-03-01T08:07:26;33.15;;;20.35;;
43114;SDS011;28727;50.068;14.452;2023-03-01T08:09:58;32.17;;;21.70;;
43114;SDS011;28727;50.068;14.452;2023-03-01T08:12:31;31.40;;;21.20;;
43114;SDS011;28727;50.068;14.452;2023-03-01T08:15:03;38.00;;;22.70;;
43114;SDS011;28727;50.068;14.452;2023-03-01T08:17:40;33.55;;;20.42;;
43114;SDS011;28727;50.068;14.452;2023-03-01T08:20:12;32.45;;;20.75;;
43114;SDS011;28727;50.068;14.452;2023-03-01T08:22:44;38.38;;;21.45;;
43114;SDS011;28727;50.068;14.452;2023-03-01T08:25:17;32.97;;;19.85;;
43114;SDS011;28727;50.068;14.452;2023-03-01T08:27:49;29.15;;;19.35;;
43114;SDS011;28727;50.068;14.452;2023-03-01T08:30:22;36.50;;;21.65;;
43114;SDS011;28727;50.068;14.452;2023-03-01T08:32:56;36.17;;;20.70;;
43114;SDS011;28727;50.068;14.452;2023-03-01T08:35:29;33.97;;;21.25;;
43114;SDS011;28727;50.068;14.452;2023-03-01T08:38:00;34.58;;;19.63;;
43114;SDS011;28727;50.068;14.452;2023-03-01T08:40:32;32.83;;;19.98;;
43114;SDS011;28727;50.068;14.452;2023-03-01T08:43:05;32.70;;;20.40;;
43114;SDS011;28727;50.068;14.452;2023-03-01T08:45:37;31.55;;;19.27;;
43114;SDS011;28727;50.068;14.452;2023-03-01T08:48:09;33.65;;;20.15;;
43114;SDS011;28727;50.068;14.452;2023-03-01T08:50:41;32.67;;;20.30;;
43114;SDS011;28727;50.068;14.452;2023-03-01T08:53:16;31.13;;;19.00;;
43114;SDS011;28727;50.068;14.452;2023-03-01T08:55:51;31.15;;;19.42;;
43114;SDS011;28727;50.068;14.452;2023-03-01T09:00:54;29.42;;;18.38;;
43114;SDS011;28727;50.068;14.452;2023-03-01T09:03:52;26.95;;;18.48;;
43114;SDS011;28727;50.068;14.452;2023-03-01T09:06:24;29.30;;;18.55;;
43114;SDS011;28727;50.068;14.452;2023-03-01T09:08:56;41.20;;;21.30;;
43114;SDS011;28727;50.068;14.452;2023-03-01T09:11:28;32.92;;;17.98;;
43114;SDS011;28727;50.068;14.452;2023-03-01T09:14:01;31.15;;;19.50;;
43114;SDS011;28727;50.068;14.452;2023-03-01T09:16:36;35.72;;;20.08;;
43114;SDS011;28727;50.068;14.452;2023-03-01T09:19:08;29.38;;;19.15;;
43114;SDS011;28727;50.068;14.452;2023-03-01T09:21:43;25.83;;;17.20;;
43114;SDS011;28727;50.068;14.452;2023-03-01T09:24:32;27.73;;;17.42;;
43114;SDS011;28727;50.068;14.452;2023-03-01T09:27:06;29.77;;;17.77;;
43114;SDS011;28727;50.068;14.452;2023-03-01T09:29:40;29.00;;;17.73;;
43114;SDS011;28727;50.068;14.452;2023-03-01T09:32:12;30.17;;;17.88;;
43114;SDS011;28727;50.068;14.452;2023-03-01T09:34:44;30.30;;;17.35;;
43114;SDS011;28727;50.068;14.452;2023-03-01T09:37:35;29.65;;;17.40;;
43114;SDS011;28727;50.068;14.452;2023-03-01T09:40:11;26.50;;;17.08;;
43114;SDS011;28727;50.068;14.452;2023-03-01T09:43:01;26.85;;;17.27;;
43114;SDS011;28727;50.068;14.452;2023-03-01T09:46:11;28.92;;;17.65;;
43114;SDS011;28727;50.068;14.452;2023-03-01T09:48:52;25.27;;;16.23;;
43114;SDS011;28727;50.068;14.452;2023-03-01T09:51:34;22.13;;;15.07;;
43114;SDS011;28727;50.068;14.452;2023-03-01T09:54:30;25.85;;;14.88;;
43114;SDS011;28727;50.068;14.452;2023-03-01T10:00:59;25.08;;;15.73;;
43114;SDS011;28727;50.068;14.452;2023-03-01T10:06:14;29.00;;;15.68;;
43114;SDS011;28727;50.068;14.452;2023-03-01T10:09:06;29.13;;;16.60;;
43114;SDS011;28727;50.068;14.452;2023-03-01T10:11:50;30.13;;;16.77;;
43114;SDS011;28727;50.068;14.452;2023-03-01T10:14:35;25.75;;;15.80;;
43114;SDS011;28727;50.068;14.452;2023-03-01T10:20:22;25.27;;;16.73;;
43114;SDS011;28727;50.068;14.452;2023-03-01T10:23:10;31.48;;;16.00;;
43114;SDS011;28727;50.068;14.452;2023-03-01T10:28:17;27.42;;;15.90;;
43114;SDS011;28727;50.068;14.452;2023-03-01T10:31:05;27.75;;;17.02;;
43114;SDS011;28727;50.068;14.452;2023-03-01T10:33:43;24.77;;;15.80;;
43114;SDS011;28727;50.068;14.452;2023-03-01T10:36:17;25.70;;;15.77;;
43114;SDS011;28727;50.068;14.452;2023-03-01T10:38:54;24.30;;;15.52;;
43114;SDS011;28727;50.068;14.452;2023-03-01T10:41:28;33.28;;;17.60;;
43114;SDS011;28727;50.068;14.452;2023-03-01T10:44:00;20.98;;;13.45;;
43114;SDS011;28727;50.068;14.452;2023-03-01T10:46:34;22.80;;;14.93;;
43114;SDS011;28727;50.068;14.452;2023-03-01T10:51:53;21.33;;;13.55;;
43114;SDS011;28727;50.068;14.452;2023-03-01T10:54:27;21.98;;;14.43;;
43114;SDS011;28727;50.068;14.452;2023-03-01T10:57:02;24.45;;;15.25;;
43114;SDS011;28727;50.068;14.452;2023-03-01T10:59:37;23.30;;;14.43;;
43114;SDS011;28727;50.068;14.452;2023-03-01T11:02:24;19.05;;;13.13;;
43114;SDS011;28727;50.068;14.452;2023-03-01T11:10:30;23.13;;;14.35;;
43114;SDS011;28727;50.068;14.452;2023-03-01T11:13:08;23.20;;;14.93;;
43114;SDS011;28727;50.068;14.452;2023-03-01T11:15:59;22.88;;;14.82;;
43114;SDS011;28727;50.068;14.452;2023-03-01T11:18:37;24.63;;;15.35;;
43114;SDS011;28727;50.068;14.452;2023-03-01T11:21:18;23.80;;;13.20;;
43114;SDS011;28727;50.068;14.452;2023-03-01T11:26:27;23.92;;;14.88;;
43114;SDS011;28727;50.068;14.452;2023-03-01T11:29:04;23.15;;;14.70;;
43114;SDS011;28727;50.068;14.452;2023-03-01T11:31:44;24.50;;;14.52;;
43114;SDS011;28727;50.068;14.452;2023-03-01T11:34:32;27.10;;;15.05;;
43114;SDS011;28727;50.068;14.452;2023-03-01T11:37:16;24.13;;;15.25;;
43114;SDS011;28727;50.068;14.452;2023-03-01T11:40:15;21.88;;;14.00;;
43114;SDS011;28727;50.068;14.452;2023-03-01T11:48:46;29.45;;;15.13;;
43114;SDS011;28727;50.068;14.452;2023-03-01T11:51:24;22.50;;;14.48;;
43114;SDS011;28727;50.068;14.452;2023-03-01T11:54:19;28.38;;;16.70;;
43114;SDS011;28727;50.068;14.452;2023-03-01T11:57:19;37.17;;;19.42;;
43114;SDS011;28727;50.068;14.452;2023-03-01T12:00:24;24.05;;;15.63;;
43114;SDS011;28727;50.068;14.452;2023-03-01T12:06:17;24.45;;;15.70;;
43114;SDS011;28727;50.068;14.452;2023-03-01T12:32:04;36.00;;;18.50;;
43114;SDS011;28727;50.068;14.452;2023-03-01T12:44:10;25.02;;;15.77;;
43114;SDS011;28727;50.068;14.452;2023-03-01T12:46:47;25.60;;;16.08;;
43114;SDS011;28727;50.068;14.452;2023-03-01T12:49:37;25.67;;;15.50;;
43114;SDS011;28727;50.068;14.452;2023-03-01T12:52:35;25.83;;;14.75;;
43114;SDS011;28727;50.068;14.452;2023-03-01T12:55:31;23.75;;;14.93;;
43114;SDS011;28727;50.068;14.452;2023-03-01T13:15:26;23.83;;;15.90;;
43114;SDS011;28727;50.068;14.452;2023-03-01T13:18:03;30.25;;;16.83;;
43114;SDS011;28727;50.068;14.452;2023-03-01T13:28:52;24.80;;;15.85;;
43114;SDS011;28727;50.068;14.452;2023-03-01T13:34:02;23.33;;;14.20;;
43114;SDS011;28727;50.068;14.452;2023-03-01T13:36:45;26.50;;;14.50;;
43114;SDS011;28727;50.068;14.452;2023-03-01T13:39:29;25.17;;;15.20;;
43114;SDS011;28727;50.068;14.452;2023-03-01T13:45:02;26.75;;;14.85;;
43114;SDS011;28727;50.068;14.452;2023-03-01T13:47:36;23.92;;;14.40;;
43114;SDS011;28727;50.068;14.452;2023-03-01T13:50:16;27.33;;;14.45;;
43114;SDS011;28727;50.068;14.452;2023-03-01T13:52:53;24.60;;;15.13;;
43114;SDS011;28727;50.068;14.452;2023-03-01T13:58:22;29.35;;;16.23;;
43114;SDS011;28727;50.068;14.452;2023-03-01T14:01:02;30.58;;;16.73;;
43114;SDS011;28727;50.068;14.452;2023-03-01T14:03:40;25.33;;;14.85;;
43114;SDS011;28727;50.068;14.452;2023-03-01T14:06:21;22.65;;;13.25;;
43114;SDS011;28727;50.068;14.452;2023-03-01T14:20:38;19.55;;;13.05;;
43114;SDS011;28727;50.068;14.452;2023-03-01T14:23:23;22.67;;;13.82;;
43114;SDS011;28727;50.068;14.452;2023-03-01T14:25:57;26.63;;;15.40;;
43114;SDS011;28727;50.068;14.452;2023-03-01T14:28:36;30.92;;;17.58;;
43114;SDS011;28727;50.068;14.452;2023-03-01T14:34:23;25.13;;;14.95;;
43114;SDS011;28727;50.068;14.452;2023-03-01T14:37:09;29.00;;;15.18;;
43114;SDS011;28727;50.068;14.452;2023-03-01T14:40:02;23.77;;;14.10;;
43114;SDS011;28727;50.068;14.452;2023-03-01T14:42:36;22.83;;;14.07;;
43114;SDS011;28727;50.068;14.452;2023-03-01T14:45:09;21.60;;;13.43;;
43114;SDS011;28727;50.068;14.452;2023-03-01T14:47:46;28.63;;;14.00;;
43114;SDS011;28727;50.068;14.452;2023-03-01T14:50:22;24.30;;;12.63;;
43114;SDS011;28727;50.068;14.452;2023-03-01T14:52:58;22.08;;;12.63;;
43114;SDS011;28727;50.068;14.452;2023-03-01T14:55:37;20.80;;;12.15;;
43114;SDS011;28727;50.068;14.452;2023-03-01T14:58:18;21.10;;;12.23;;
43114;SDS011;28727;50.068;14.452;2023-03-01T15:00:58;21.42;;;12.65;;
43114;SDS011;28727;50.068;14.452;2023-03-01T15:06:09;22.98;;;12.88;;
43114;SDS011;28727;50.068;14.452;2023-03-01T15:08:47;22.63;;;12.48;;
43114;SDS011;28727;50.068;14.452;2023-03-01T15:11:28;21.08;;;12.55;;
43114;SDS011;28727;50.068;14.452;2023-03-01T15:14:24;20.23;;;12.52;;
43114;SDS011;28727;50.068;14.452;2023-03-01T15:17:01;20.55;;;12.23;;
43114;SDS011;28727;50.068;14.452;2023-03-01T15:19:33;20.98;;;12.32;;
43114;SDS011;28727;50.068;14.452;2023-03-01T15:22:13;21.08;;;13.13;;
43114;SDS011;28727;50.068;14.452;2023-03-01T15:24:48;18.83;;;11.73;;
43114;SDS011;28727;50.068;14.452;2023-03-01T15:27:22;20.58;;;11.52;;
43114;SDS011;28727;50.068;14.452;2023-03-01T15:30:13;18.25;;;10.90;;
43114;SDS011;28727;50.068;14.452;2023-03-01T15:35:51;20.88;;;10.98;;
43114;SDS011;28727;50.068;14.452;2023-03-01T15:41:02;18.00;;;11.68;;
43114;SDS011;28727;50.068;14.452;2023-03-01T15:43:37;18.83;;;11.57;;
43114;SDS011;28727;50.068;14.452;2023-03-01T15:46:17;18.35;;;11.38;;
43114;SDS011;28727;50.068;14.452;2023-03-01T15:48:54;18.88;;;10.75;;
43114;SDS011;28727;50.068;14.452;2023-03-01T15:51:37;19.23;;;11.10;;
43114;SDS011;28727;50.068;14.452;2023-03-01T15:54:18;17.17;;;10.93;;
43114;SDS011;28727;50.068;14.452;2023-03-01T15:56:55;21.20;;;10.65;;
43114;SDS011;28727;50.068;14.452;2023-03-01T15:59:27;18.40;;;10.98;;
43114;SDS011;28727;50.068;14.452;2023-03-01T16:02:01;23.40;;;12.07;;
43114;SDS011;28727;50.068;14.452;2023-03-01T16:04:35;18.65;;;11.23;;
43114;SDS011;28727;50.068;14.452;2023-03-01T16:07:14;19.05;;;11.02;;
43114;SDS011;28727;50.068;14.452;2023-03-01T16:09:49;20.67;;;11.35;;
43114;SDS011;28727;50.068;14.452;2023-03-01T16:12:20;20.92;;;11.82;;
43114;SDS011;28727;50.068;14.452;2023-03-01T16:14:52;18.73;;;11.45;;
43114;SDS011;28727;50.068;14.452;2023-03-01T16:17:26;18.13;;;11.02;;
43114;SDS011;28727;50.068;14.452;2023-03-01T16:19:58;18.25;;;11.25;;
43114;SDS011;28727;50.068;14.452;2023-03-01T16:22:30;17.10;;;10.93;;
43114;SDS011;28727;50.068;14.452;2023-03-01T16:25:08;21.15;;;11.38;;
43114;SDS011;28727;50.068;14.452;2023-03-01T16:28:00;20.95;;;12.05;;
43114;SDS011;28727;50.068;14.452;2023-03-01T16:30:45;22.70;;;12.27;;
43114;SDS011;28727;50.068;14.452;2023-03-01T16:33:18;20.25;;;11.57;;
43114;SDS011;28727;50.068;14.452;2023-03-01T16:38:45;18.60;;;11.15;;
43114;SDS011;28727;50.068;14.452;2023-03-01T16:41:27;20.75;;;11.23;;
43114;SDS011;28727;50.068;14.452;2023-03-01T16:44:01;18.27;;;11.80;;
43114;SDS011;28727;50.068;14.452;2023-03-01T16:46:33;20.60;;;12.30;;
43114;SDS011;28727;50.068;14.452;2023-03-01T16:49:09;19.67;;;12.07;;
43114;SDS011;28727;50.068;14.452;2023-03-01T16:51:40;20.75;;;11.48;;
43114;SDS011;28727;50.068;14.452;2023-03-01T16:54:15;22.33;;;11.55;;
43114;SDS011;28727;50.068;14.452;2023-03-01T16:56:52;24.55;;;12.75;;
43114;SDS011;28727;50.068;14.452;2023-03-01T16:59:25;28.13;;;13.05;;
43114;SDS011;28727;50.068;14.452;2023-03-01T17:01:59;22.98;;;13.25;;
43114;SDS011;28727;50.068;14.452;2023-03-01T17:04:34;23.30;;;11.82;;
43114;SDS011;28727;50.068;14.452;2023-03-01T17:07:09;22.10;;;12.05;;
43114;SDS011;28727;50.068;14.452;2023-03-01T17:09:50;24.80;;;12.10;;
43114;SDS011;28727;50.068;14.452;2023-03-01T17:12:22;20.27;;;12.20;;
43114;SDS011;28727;50.068;14.452;2023-03-01T17:14:53;22.92;;;12.15;;
43114;SDS011;28727;50.068;14.452;2023-03-01T17:17:26;21.63;;;12.95;;
43114;SDS011;28727;50.068;14.452;2023-03-01T17:19:59;24.43;;;13.07;;
43114;SDS011;28727;50.068;14.452;2023-03-01T17:22:34;20.65;;;12.50;;
43114;SDS011;28727;50.068;14.452;2023-03-01T17:25:07;22.17;;;12.93;;
43114;SDS011;28727;50.068;14.452;2023-03-01T17:27:46;22.05;;;13.10;;
43114;SDS011;28727;50.068;14.452;2023-03-01T17:30:21;21.30;;;12.55;;
43114;SDS011;28727;50.068;14.452;2023-03-01T17:32:58;22.60;;;12.00;;
43114;SDS011;28727;50.068;14.452;2023-03-01T17:35:45;24.17;;;13.52;;